Time;durP1;ratioP1;P1;durP2;ratioP2;P2;SDS_P1;SDS_P2;PMS_P1;PMS_P2;Temp;Humidity;BMP_temperature;BMP_pressure;BME280_temperature;BME280_humidity;BME280_pressure;Samples;Min_cycle;Max_cycle;Signal;HPM_P1;HPM_P2
2022/12/28 00:01:58;;;;;;;6.07;4.30;;;;;;;4.58;100.00;161764.44;5051474;28;20048;-59
2022/12/28 00:04:23;;;;;;;12.35;5.43;;;;;;;4.56;100.00;161759.09;5052234;28;20021;-59
2022/12/28 00:06:49;;;;;;;6.07;4.55;;;;;;;4.54;100.00;161753.69;5050807;28;20049;-59
2022/12/28 00:09:15;;;;;;;11.02;4.95;;;;;;;4.50;100.00;161742.97;5052530;28;20022;-59
2022/12/28 00:11:40;;;;;;;7.53;5.38;;;;;;;4.39;100.00;161714.72;5050816;28;20470;-58
2022/12/28 00:14:05;;;;;;;12.95;5.35;;;;;;;4.37;100.00;161710.66;5052351;28;20033;-59
2022/12/28 00:16:33;;;;;;;12.07;4.95;;;;;;;4.31;100.00;161694.53;5051341;28;20037;-59
2022/12/28 00:19:01;;;;;;;10.07;5.90;;;;;;;4.31;100.00;161694.53;5052747;28;20498;-59
2022/12/28 00:21:27;;;;;;;14.93;5.65;;;;;;;4.28;100.00;161686.50;5051126;28;20114;-59
2022/12/28 00:23:57;;;;;;;9.18;4.90;;;;;;;4.22;100.00;161670.34;5052792;28;20068;-59
2022/12/28 00:26:22;;;;;;;6.95;6.15;;;;;;;4.20;100.00;161666.31;5050857;28;20095;-59
2022/12/28 00:28:48;;;;;;;16.85;6.63;;;;;;;4.21;100.00;161669.00;5052291;28;20427;-59
2022/12/28 00:31:14;;;;;;;7.05;5.70;;;;;;;4.17;100.00;161656.91;5051088;28;20071;-59
2022/12/28 00:33:40;;;;;;;7.05;5.57;;;;;;;4.17;100.00;161658.22;5052701;28;20048;-59
2022/12/28 00:36:06;;;;;;;11.35;5.18;;;;;;;4.10;100.00;161640.78;5050610;28;20411;-59
2022/12/28 00:38:36;;;;;;;7.60;5.93;;;;;;;4.12;100.00;161646.19;5052509;28;20506;-58
2022/12/28 00:41:01;;;;;;;15.32;7.60;;;;;;;4.06;100.00;161630.00;5050798;28;20142;-59
2022/12/28 00:43:27;;;;;;;11.90;7.03;;;;;;;4.07;100.00;161631.38;5051857;28;20049;-59
2022/12/28 00:45:52;;;;;;;8.93;6.35;;;;;;;4.04;100.00;161624.66;5050871;28;20428;-59
2022/12/28 00:48:17;;;;;;;14.57;7.82;;;;;;;4.00;100.00;161613.88;5051913;28;20043;-58
2022/12/28 00:50:43;;;;;;;14.48;7.05;;;;;;;4.02;100.00;161619.28;5050285;28;20025;-58
2022/12/28 00:53:10;;;;;;;18.73;10.32;;;;;;;4.01;100.00;161616.59;5051881;28;20376;-59
2022/12/28 00:55:35;;;;;;;12.05;6.32;;;;;;;3.97;100.00;161605.84;5050810;28;20017;-60
2022/12/28 00:58:02;;;;;;;10.43;6.28;;;;;;;4.02;100.00;161617.97;5051581;28;20021;-59
2022/12/28 01:00:27;;;;;;;9.40;4.63;;;;;;;4.03;100.00;161621.97;5051960;28;20472;-60
2022/12/28 01:02:53;;;;;;;8.00;5.68;;;;;;;4.04;100.00;161624.66;5050675;28;20178;-60
2022/12/28 01:05:19;;;;;;;7.40;5.97;;;;;;;4.07;100.00;161631.38;5051758;28;20032;-59
2022/12/28 01:07:44;;;;;;;16.08;6.10;;;;;;;4.07;100.00;161632.69;5050350;28;20041;-59
2022/12/28 01:10:10;;;;;;;13.45;6.97;;;;;;;4.09;100.00;161638.09;5051729;28;20029;-59
2022/12/28 01:12:36;;;;;;;12.27;6.95;;;;;;;4.13;100.00;161647.50;5049715;28;20041;-59
2022/12/28 01:15:05;;;;;;;14.77;5.30;;;;;;;4.15;100.00;161651.50;5051611;28;20025;-59
2022/12/28 01:17:30;;;;;;;42.05;8.32;;;;;;;4.15;100.00;161651.50;5050072;28;20037;-59
2022/12/28 01:19:56;;;;;;;19.27;6.80;;;;;;;4.15;100.00;161651.50;5051265;28;20023;-59
2022/12/28 01:22:22;;;;;;;11.40;5.55;;;;;;;4.14;100.00;161650.19;5049866;28;20495;-59
2022/12/28 01:24:47;;;;;;;8.65;6.00;;;;;;;4.12;100.00;161646.19;5051706;28;20047;-59
2022/12/28 01:27:12;;;;;;;8.52;6.72;;;;;;;4.13;100.00;161648.81;5049614;28;20115;-60
2022/12/28 01:29:38;;;;;;;10.23;6.47;;;;;;;4.13;100.00;161648.81;5051726;28;20033;-59
2022/12/28 01:32:03;;;;;;;9.70;5.68;;;;;;;4.15;100.00;161651.50;5049837;28;20458;-61
2022/12/28 01:34:29;;;;;;;12.95;6.63;;;;;;;4.12;100.00;161646.19;5051120;28;20110;-61
2022/12/28 01:36:54;;;;;;;15.75;7.53;;;;;;;4.17;100.00;161656.91;5050074;28;20048;-61
2022/12/28 01:39:19;;;;;;;16.77;6.70;;;;;;;4.20;100.00;161665.00;5051285;28;20583;-61
2022/12/28 01:41:45;;;;;;;11.55;5.30;;;;;;;4.24;100.00;161675.72;5049269;28;20063;-61
2022/12/28 01:44:10;;;;;;;17.58;7.35;;;;;;;4.27;100.00;161683.81;5051382;28;20065;-61
2022/12/28 01:46:46;;;;;;;11.43;7.40;;;;;;;4.24;100.00;161677.09;5049621;28;20575;-61
2022/12/28 01:49:18;;;;;;;16.65;7.13;;;;;;;4.31;100.00;161694.53;5050571;28;20021;-61
2022/12/28 01:52:26;;;;;;;15.65;7.40;;;;;;;4.37;100.00;161710.66;5058072;28;20061;-61
2022/12/28 01:54:59;;;;;;;7.00;6.28;;;;;;;4.43;100.00;161726.78;5008910;28;20030;-61
2022/12/28 01:57:28;;;;;;;8.70;5.85;;;;;;;4.41;100.00;161721.44;5007081;28;20577;-60
2022/12/28 02:00:02;;;;;;;16.63;7.40;;;;;;;4.47;100.00;161734.88;5010288;28;20041;-60
2022/12/28 02:02:28;;;;;;;13.98;5.75;;;;;;;4.52;100.00;161748.31;5027502;28;20524;-59
2022/12/28 02:04:54;;;;;;;11.88;7.63;;;;;;;4.51;100.00;161745.59;5030532;28;20096;-59
2022/12/28 02:07:34;;;;;;;16.65;7.80;;;;;;;4.53;100.00;161751.00;5044689;28;20185;-61
2022/12/28 02:09:59;;;;;;;9.95;7.28;;;;;;;4.56;100.00;161759.09;5050593;28;20614;-61
2022/12/28 02:12:24;;;;;;;7.38;6.47;;;;;;;4.59;100.00;161767.13;5048868;28;20057;-61
2022/12/28 02:14:50;;;;;;;17.88;6.38;;;;;;;4.65;100.00;161783.28;5051994;28;20476;-61
2022/12/28 02:17:16;;;;;;;16.73;6.35;;;;;;;4.68;100.00;161791.34;5048843;28;20130;-60
2022/12/28 02:19:45;;;;;;;15.25;7.15;;;;;;;4.72;100.00;161802.13;5050271;28;20031;-60
2022/12/28 02:22:48;;;;;;;13.10;6.70;;;;;;;4.80;100.00;161820.94;5049114;28;20044;-59
2022/12/28 02:25:32;;;;;;;6.95;5.45;;;;;;;4.79;100.00;161818.25;5050231;28;20029;-59
2022/12/28 02:28:17;;;;;;;9.88;7.15;;;;;;;4.83;100.00;161828.97;5048912;28;20064;-59
2022/12/28 02:30:52;;;;;;;9.82;6.13;;;;;;;4.86;100.00;161837.06;5049426;28;20017;-59
2022/12/28 02:33:25;;;;;;;16.05;7.18;;;;;;;4.89;100.00;161846.47;5049676;28;20028;-58
2022/12/28 02:35:56;;;;;;;30.77;6.13;;;;;;;4.91;100.00;161850.50;5049324;28;20036;-58
2022/12/28 02:38:27;;;;;;;14.35;7.45;;;;;;;4.96;100.00;161862.63;5050458;28;20155;-58
2022/12/28 02:40:59;;;;;;;8.23;5.57;;;;;;;5.00;100.00;161874.72;5048375;28;20501;-58
2022/12/28 02:43:25;;;;;;;9.32;6.05;;;;;;;5.00;100.00;161874.72;5050668;28;20032;-58
2022/12/28 02:51:44;;;;;;;6.82;5.60;;;;;;;5.08;100.00;161894.88;5049416;28;20044;-58
2022/12/28 02:57:36;;;;;;;7.03;6.05;;;;;;;5.20;100.00;161925.81;5048806;28;20063;-58
2022/12/28 03:00:09;;;;;;;8.95;8.05;;;;;;;5.24;100.00;161936.59;5049975;28;20471;-58
2022/12/28 03:02:50;;;;;;;7.32;5.65;;;;;;;5.25;100.00;161939.25;5048541;28;20076;-58
2022/12/28 03:08:27;;;;;;;8.23;5.80;;;;;;;5.22;100.00;161932.53;5048629;28;20048;-58
2022/12/28 03:11:03;;;;;;;11.90;6.40;;;;;;;5.24;100.00;161937.91;5048381;28;20521;-58
2022/12/28 03:13:43;;;;;;;14.93;6.75;;;;;;;5.25;100.00;161939.25;5050454;28;20048;-58
2022/12/28 03:16:30;;;;;;;8.43;7.15;;;;;;;5.22;100.00;161931.19;5048906;28;20041;-58
2022/12/28 03:33:00;;;;;;;12.77;7.70;;;;;;;5.24;100.00;161937.91;5048366;28;20043;-58
2022/12/28 03:35:44;;;;;;;13.32;8.55;;;;;;;5.26;100.00;161940.63;5048591;28;20021;-57
2022/12/28 03:38:25;;;;;;;11.88;7.80;;;;;;;5.28;100.00;161946.00;5049538;28;20029;-58
2022/12/28 03:40:57;;;;;;;12.45;8.85;;;;;;;5.29;100.00;161950.03;5050589;28;20041;-58
2022/12/28 03:43:40;;;;;;;13.43;8.23;;;;;;;5.32;100.00;161958.13;5053366;28;20055;-58
2022/12/28 03:46:21;;;;;;;9.90;8.00;;;;;;;5.34;100.00;161963.47;5056583;28;20045;-59
2022/12/28 03:48:48;;;;;;;15.90;8.48;;;;;;;5.33;100.00;161960.78;5073159;28;20035;-58
2022/12/28 03:51:18;;;;;;;18.75;10.10;;;;;;;5.38;100.00;161974.25;5071788;28;20040;-59
2022/12/28 03:53:46;;;;;;;13.52;9.32;;;;;;;5.37;100.00;161971.56;5058747;28;20122;-59
2022/12/28 03:56:13;;;;;;;11.95;9.57;;;;;;;5.39;100.00;161975.59;5051350;28;20171;-59
2022/12/28 03:58:38;;;;;;;14.75;9.32;;;;;;;5.40;100.00;161978.28;5053110;28;20029;-59
2022/12/28 04:01:04;;;;;;;11.52;8.73;;;;;;;5.43;100.00;161985.00;5051476;28;20047;-59
2022/12/28 04:03:30;;;;;;;12.80;8.50;;;;;;;5.45;100.00;161990.41;5052865;28;20405;-59
2022/12/28 04:05:55;;;;;;;14.20;8.88;;;;;;;5.46;100.00;161994.41;5051373;28;20064;-59
2022/12/28 04:08:20;;;;;;;9.77;8.45;;;;;;;5.49;100.00;162002.50;5052588;28;20040;-59
2022/12/28 04:10:46;;;;;;;14.88;9.15;;;;;;;5.51;100.00;162006.53;5051400;28;20041;-61
2022/12/28 04:13:11;;;;;;;9.18;8.20;;;;;;;5.53;100.00;162011.94;5052814;28;20020;-61
2022/12/28 04:15:36;;;;;;;9.68;8.68;;;;;;;5.56;100.00;162019.97;5051693;28;20025;-59
2022/12/28 04:18:02;;;;;;;8.75;7.97;;;;;;;5.59;100.00;162028.06;5052429;28;20028;-59
2022/12/28 04:20:28;;;;;;;12.32;9.20;;;;;;;5.60;100.00;162030.75;5050836;28;20617;-59
2022/12/28 04:22:53;;;;;;;11.18;9.98;;;;;;;5.65;100.00;162044.19;5052892;28;20024;-59
2022/12/28 04:25:18;;;;;;;10.90;8.50;;;;;;;5.66;100.00;162046.91;5052154;28;20055;-59
2022/12/28 04:27:44;;;;;;;10.07;8.98;;;;;;;5.67;100.00;162049.59;5050157;28;20408;-59
2022/12/28 04:30:09;;;;;;;11.30;8.43;;;;;;;5.70;100.00;161960.41;5052364;28;20025;-59
2022/12/28 04:32:35;;;;;;;9.50;7.28;;;;;;;5.70;100.00;161323.44;5050843;28;20650;-59
2022/12/28 04:35:00;;;;;;;10.00;7.97;;;;;;;5.71;100.00;160527.78;5052111;28;20028;-59
2022/12/28 04:37:26;;;;;;;10.32;9.38;;;;;;;5.77;100.00;159600.34;5051078;28;20051;-59
2022/12/28 04:39:51;;;;;;;9.52;8.65;;;;;;;5.77;100.00;158692.59;5052235;28;20028;-59
2022/12/28 04:42:16;;;;;;;10.20;9.20;;;;;;;5.78;100.00;157633.06;5050953;28;20052;-59
2022/12/28 04:44:42;;;;;;;16.73;9.32;;;;;;;5.82;100.00;156264.13;5052407;28;20029;-59
2022/12/28 04:47:07;;;;;;;10.70;8.00;;;;;;;5.83;100.00;155110.81;5050139;28;20045;-59
2022/12/28 04:49:32;;;;;;;10.95;9.43;;;;;;;5.84;100.00;154036.91;5052394;28;20028;-59
2022/12/28 04:51:58;;;;;;;10.00;9.07;;;;;;;5.87;100.00;152994.38;5050544;28;20488;-59
2022/12/28 04:54:23;;;;;;;10.38;8.45;;;;;;;5.89;100.00;151948.22;5051107;28;20446;-59
2022/12/28 04:56:48;;;;;;;9.50;8.60;;;;;;;5.91;100.00;150903.56;5050732;28;20071;-59
2022/12/28 04:59:13;;;;;;;10.38;9.10;;;;;;;5.94;100.00;149861.53;5051863;28;20029;-59
2022/12/28 05:01:39;;;;;;;9.20;8.38;;;;;;;5.91;100.00;149154.63;5050121;28;20044;-59
2022/12/28 05:04:04;;;;;;;11.70;9.88;;;;;;;5.97;100.00;148468.72;5051541;28;20029;-59
2022/12/28 05:06:30;;;;;;;11.13;8.93;;;;;;;5.99;100.00;147076.38;5050475;28;20060;-58
2022/12/28 05:08:56;;;;;;;10.20;9.23;;;;;;;6.01;100.00;146731.63;5051378;28;20025;-58
2022/12/28 05:11:25;;;;;;;10.82;9.50;;;;;;;6.04;100.00;145689.06;5063160;28;20062;-58
2022/12/28 05:13:51;;;;;;;10.73;8.68;;;;;;;6.05;100.00;144641.94;5072196;28;20024;-58
2022/12/28 05:16:19;;;;;;;10.27;9.23;;;;;;;6.05;100.00;144293.72;5069797;28;20499;-59
2022/12/28 05:18:44;;;;;;;12.23;10.88;;;;;;;6.08;100.00;143251.63;5071787;28;20029;-58
2022/12/28 05:21:18;;;;;;;13.10;9.82;;;;;;;6.12;100.00;142562.50;5053779;28;20037;-59
2022/12/28 05:23:44;;;;;;;9.45;8.48;;;;;;;6.12;100.00;141864.00;5044060;28;20043;-58
2022/12/28 05:26:12;;;;;;;10.52;9.45;;;;;;;6.14;100.00;141170.31;5050104;28;20033;-58
2022/12/28 05:28:38;;;;;;;14.55;9.73;;;;;;;6.13;100.00;140120.63;5050893;28;20033;-58
2022/12/28 05:31:06;;;;;;;17.95;10.40;;;;;;;6.17;100.00;139082.69;5049598;28;20036;-60
2022/12/28 05:33:33;;;;;;;9.15;8.32;;;;;;;6.20;100.00;138042.66;5051137;28;20029;-59
2022/12/28 05:36:03;;;;;;;11.63;10.43;;;;;;;6.24;100.00;137005.00;5051622;28;20603;-59
2022/12/28 05:38:28;;;;;;;12.27;11.05;;;;;;;6.25;100.00;136309.56;5049552;28;20049;-59
2022/12/28 05:40:54;;;;;;;10.80;9.80;;;;;;;6.29;100.00;135968.59;5051253;28;20025;-60
2022/12/28 05:43:19;;;;;;;9.35;8.38;;;;;;;6.33;100.00;135628.72;5049708;28;20399;-60
2022/12/28 05:45:44;;;;;;;12.20;11.10;;;;;;;6.35;100.00;135285.56;5050876;28;20051;-59
2022/12/28 05:48:10;;;;;;;12.25;9.30;;;;;;;6.36;100.00;135286.66;5049259;28;20049;-60
2022/12/28 05:50:35;;;;;;;16.45;10.30;;;;;;;6.40;100.00;134946.81;5051369;28;20021;-60
2022/12/28 05:53:00;;;;;;;11.40;9.40;;;;;;;6.43;100.00;134952.34;5049108;28;20048;-60
2022/12/28 05:55:26;;;;;;;11.30;10.13;;;;;;;6.44;100.00;135304.50;5051167;28;20376;-60
2022/12/28 05:57:54;;;;;;;10.10;9.20;;;;;;;6.45;100.00;135306.75;5049449;28;20048;-60
2022/12/28 06:00:19;;;;;;;8.82;7.32;;;;;;;6.49;100.00;135314.56;5049985;28;20500;-60
2022/12/28 06:02:45;;;;;;;9.35;8.55;;;;;;;6.51;100.00;135319.03;5048519;28;20045;-60
2022/12/28 06:05:10;;;;;;;11.45;10.02;;;;;;;6.52;100.00;135670.13;5050715;28;20028;-60
2022/12/28 06:07:35;;;;;;;9.57;8.65;;;;;;;6.55;100.00;136025.81;5049225;28;20052;-60
2022/12/28 06:10:01;;;;;;;8.93;8.02;;;;;;;6.54;100.00;136372.53;5050760;28;20495;-60
2022/12/28 06:12:26;;;;;;;13.40;9.13;;;;;;;6.58;100.00;136729.44;5049361;28;20048;-60
2022/12/28 06:14:51;;;;;;;10.50;9.52;;;;;;;6.53;100.00;136719.28;5050782;28;20016;-60
2022/12/28 06:17:17;;;;;;;9.55;8.65;;;;;;;6.61;100.00;136737.31;5048923;28;20037;-60
2022/12/28 06:19:42;;;;;;;13.52;9.38;;;;;;;6.62;100.00;137088.66;5057580;28;20028;-59
2022/12/28 06:22:07;;;;;;;10.27;8.15;;;;;;;6.64;100.00;137442.31;5053970;28;20048;-59
2022/12/28 06:24:32;;;;;;;10.73;9.00;;;;;;;6.66;100.00;137446.84;5050302;28;20032;-59
2022/12/28 06:26:58;;;;;;;9.15;8.35;;;;;;;6.62;100.00;137786.91;5049291;28;20047;-59
2022/12/28 06:29:23;;;;;;;9.38;8.45;;;;;;;6.64;100.00;137093.19;5050502;28;20035;-58
2022/12/28 06:31:50;;;;;;;9.77;8.88;;;;;;;6.65;100.00;137095.47;5049035;28;20067;-59
2022/12/28 06:34:16;;;;;;;10.90;9.43;;;;;;;6.69;100.00;136753.13;5050013;28;20047;-59
2022/12/28 06:36:43;;;;;;;10.20;9.10;;;;;;;6.69;100.00;136404.03;5049246;28;20051;-59
2022/12/28 06:39:11;;;;;;;10.63;9.50;;;;;;;6.71;100.00;136059.47;5050046;28;20112;-59
2022/12/28 06:41:37;;;;;;;14.15;8.35;;;;;;;6.74;100.00;136066.22;5059840;28;20040;-59
2022/12/28 06:44:12;;;;;;;10.38;7.85;;;;;;;6.76;100.00;135721.59;5065489;28;20530;-59
2022/12/28 06:46:38;;;;;;;10.00;8.98;;;;;;;6.74;100.00;136066.22;5049952;28;20124;-59
2022/12/28 06:49:03;;;;;;;10.45;8.95;;;;;;;6.77;100.00;136072.94;5065639;28;20119;-59
2022/12/28 06:51:34;;;;;;;9.18;8.32;;;;;;;6.77;100.00;135723.84;5052703;28;20049;-59
2022/12/28 06:54:00;;;;;;;9.40;8.50;;;;;;;6.78;100.00;135377.03;5049857;28;20031;-58
2022/12/28 06:56:31;;;;;;;11.68;8.95;;;;;;;6.80;100.00;134683.50;5048864;28;20037;-59
2022/12/28 06:58:57;;;;;;;9.40;8.43;;;;;;;6.82;100.00;134338.91;5049994;28;20136;-59
2022/12/28 07:01:34;;;;;;;9.65;8.75;;;;;;;6.85;100.00;133995.50;5048313;28;20449;-59
2022/12/28 07:04:01;;;;;;;9.65;8.90;;;;;;;6.83;100.00;133644.34;5049632;28;20138;-59
2022/12/28 07:06:28;;;;;;;9.73;8.50;;;;;;;6.87;100.00;133303.13;5040216;28;20037;-59
2022/12/28 07:08:58;;;;;;;8.15;7.45;;;;;;;6.84;100.00;132947.66;5029924;28;20110;-59
2022/12/28 07:11:24;;;;;;;9.07;8.30;;;;;;;6.90;100.00;132960.78;5036919;28;20433;-59
2022/12/28 07:13:49;;;;;;;7.05;6.45;;;;;;;6.92;100.00;132965.19;5051113;28;20027;-60
2022/12/28 07:16:17;;;;;;;8.00;7.30;;;;;;;6.95;100.00;132622.84;5052253;28;20037;-61
2022/12/28 07:18:43;;;;;;;9.63;8.45;;;;;;;6.96;100.00;132623.94;5054965;28;20059;-60
2022/12/28 07:21:16;;;;;;;7.70;7.10;;;;;;;6.97;100.00;132627.19;5062696;28;20044;-60
2022/12/28 07:23:42;;;;;;;14.18;9.13;;;;;;;6.99;100.00;132281.59;5056192;28;20041;-59
2022/12/28 07:26:10;;;;;;;8.35;7.65;;;;;;;6.96;100.00;132625.00;5064926;28;20040;-60
2022/12/28 07:28:40;;;;;;;8.35;7.10;;;;;;;6.99;100.00;132282.66;5073822;28;20048;-60
2022/12/28 07:31:07;;;;;;;8.60;7.72;;;;;;;7.03;100.00;131940.31;5054262;28;20103;-60
2022/12/28 07:33:33;;;;;;;7.65;6.85;;;;;;;6.99;100.00;131933.78;5053589;28;20040;-60
2022/12/28 07:35:59;;;;;;;10.63;7.60;;;;;;;7.05;100.00;132293.53;5052168;28;20040;-60
2022/12/28 07:38:24;;;;;;;8.07;7.28;;;;;;;7.07;100.00;132297.91;5053371;28;20040;-59
2022/12/28 07:40:49;;;;;;;8.05;7.40;;;;;;;7.10;100.00;132305.53;5051887;28;20041;-59
2022/12/28 07:43:15;;;;;;;7.80;6.80;;;;;;;7.12;100.00;132308.78;5053168;28;20021;-60
2022/12/28 07:45:40;;;;;;;9.48;6.78;;;;;;;7.14;100.00;132662.16;5051805;28;20472;-60
2022/12/28 07:48:05;;;;;;;7.95;7.25;;;;;;;7.15;100.00;133013.38;5053339;28;20427;-60
2022/12/28 07:50:31;;;;;;;9.30;6.68;;;;;;;7.19;100.00;133370.13;5052017;28;20017;-59
2022/12/28 07:52:56;;;;;;;7.45;6.85;;;;;;;7.19;100.00;134069.47;5054402;28;20017;-60
2022/12/28 07:55:23;;;;;;;7.90;7.10;;;;;;;7.18;100.00;134764.50;5064553;28;20017;-60
2022/12/28 07:57:50;;;;;;;8.20;7.32;;;;;;;7.22;100.00;134425.28;5054293;28;20045;-59
2022/12/28 08:00:17;;;;;;;8.52;7.72;;;;;;;7.22;100.00;134425.28;5063264;28;20024;-60
2022/12/28 08:02:42;;;;;;;7.53;6.88;;;;;;;7.23;100.00;134775.59;5053012;28;20083;-60
2022/12/28 08:05:08;;;;;;;9.10;7.43;;;;;;;7.24;100.00;134777.84;5060800;28;20468;-59
2022/12/28 08:07:33;;;;;;;7.68;6.97;;;;;;;7.25;100.00;134431.97;5050313;28;20091;-58
2022/12/28 08:09:59;;;;;;;8.00;7.40;;;;;;;7.27;100.00;134087.13;5049613;28;20024;-58
2022/12/28 08:12:24;;;;;;;7.25;6.43;;;;;;;7.32;100.00;134096.00;5050132;28;20060;-58
2022/12/28 08:14:50;;;;;;;7.57;6.97;;;;;;;7.34;100.00;133751.16;5052252;28;20021;-57
2022/12/28 08:17:15;;;;;;;7.50;6.80;;;;;;;7.32;100.00;134097.09;5051419;28;20048;-58
2022/12/28 08:19:40;;;;;;;7.82;7.13;;;;;;;7.33;100.00;134098.22;5053699;28;20530;-58
2022/12/28 08:22:06;;;;;;;7.68;6.97;;;;;;;7.35;100.00;133754.50;5048283;28;20037;-58
2022/12/28 08:24:31;;;;;;;6.65;6.15;;;;;;;7.35;100.00;134102.59;5051051;28;20029;-58
2022/12/28 08:26:56;;;;;;;7.32;6.63;;;;;;;7.33;100.00;134098.22;5049629;28;20045;-58
2022/12/28 08:29:22;;;;;;;8.57;7.68;;;;;;;7.38;100.00;133760.00;5064997;28;20506;-58
2022/12/28 08:31:48;;;;;;;8.15;7.45;;;;;;;7.38;100.00;134109.25;5055983;28;20450;-58
2022/12/28 08:34:16;;;;;;;8.18;7.38;;;;;;;7.38;100.00;134109.25;5051207;28;20060;-58
2022/12/28 08:36:41;;;;;;;;;;;;;;;7.39;100.00;134112.53;5049857;28;20514;-58
2022/12/28 08:39:07;;;;;;;7.83;7.13;;;;;;;7.41;100.00;134115.88;5050722;28;19912;-58
2022/12/28 08:41:32;;;;;;;6.68;6.05;;;;;;;7.41;100.00;134115.88;5050196;28;20701;-58
2022/12/28 08:43:58;;;;;;;7.82;6.53;;;;;;;7.43;100.00;133771.00;5051559;28;20029;-58
2022/12/28 08:46:27;;;;;;;7.28;6.65;;;;;;;7.42;100.00;133768.78;5049429;28;20048;-58
2022/12/28 08:48:53;;;;;;;;;;;;;;;7.44;100.00;133773.22;5051564;28;20109;-58
2022/12/28 08:51:24;;;;;;;10.00;7.68;;;;;;;7.44;100.00;133774.34;5049570;28;20123;-58
2022/12/28 08:53:50;;;;;;;7.35;6.57;;;;;;;7.49;100.00;133784.22;5050257;28;20060;-59
2022/12/28 08:56:19;;;;;;;6.97;6.38;;;;;;;7.45;100.00;134474.03;5050026;28;20029;-59
2022/12/28 08:58:45;;;;;;;7.43;6.82;;;;;;;7.51;100.00;133788.63;5051470;28;20025;-59
2022/12/28 09:01:15;;;;;;;8.27;6.75;;;;;;;7.51;100.00;134487.31;5048200;28;20076;-59
2022/12/28 09:03:42;;;;;;;6.97;6.38;;;;;;;7.50;100.00;134833.38;5050905;28;20128;-59
2022/12/28 09:06:10;;;;;;;7.05;6.45;;;;;;;7.52;100.00;135188.34;5057814;28;20105;-59
2022/12/28 09:08:36;;;;;;;6.40;5.80;;;;;;;7.53;100.00;135540.03;5054270;28;20031;-59
2022/12/28 09:11:03;;;;;;;7.30;6.03;;;;;;;7.54;100.00;135891.75;5044666;28;20037;-59
2022/12/28 09:13:29;;;;;;;6.40;5.80;;;;;;;7.54;100.00;136241.28;5031183;28;20025;-59
2022/12/28 09:15:59;;;;;;;6.53;6.03;;;;;;;7.52;100.00;136236.78;5033312;28;20091;-59
2022/12/28 09:18:25;;;;;;;7.45;6.85;;;;;;;7.52;100.00;135886.16;5052227;28;20029;-59
2022/12/28 09:20:50;;;;;;;7.97;6.75;;;;;;;7.55;100.00;135195.03;5048953;28;20053;-59
2022/12/28 09:23:15;;;;;;;8.40;7.70;;;;;;;7.56;100.00;134498.38;5049869;28;20538;-59
2022/12/28 09:25:41;;;;;;;8.82;7.63;;;;;;;7.60;100.00;133807.34;5065972;28;20032;-59
2022/12/28 09:28:06;;;;;;;7.18;6.40;;;;;;;7.65;100.00;133467.91;5042822;28;20017;-59
2022/12/28 09:30:31;;;;;;;6.97;6.38;;;;;;;7.67;100.00;133472.31;5049080;28;20434;-59
2022/12/28 09:35:41;;;;;;;7.18;6.57;;;;;;;7.67;100.00;134520.53;5049197;28;20039;-59
2022/12/28 09:38:06;;;;;;;8.23;6.00;;;;;;;7.66;100.00;134867.78;5063131;28;20017;-59
2022/12/28 09:40:33;;;;;;;7.32;6.63;;;;;;;7.63;100.00;135562.34;5048863;28;20021;-58
2022/12/28 09:42:59;;;;;;;7.22;6.72;;;;;;;7.68;100.00;135221.75;5049706;28;20021;-59
2022/12/28 09:45:25;;;;;;;8.02;7.03;;;;;;;7.72;100.00;135231.78;5050551;28;20472;-59
2022/12/28 09:47:57;;;;;;;7.90;7.25;;;;;;;7.75;100.00;135237.34;5052010;28;20045;-59
2022/12/28 09:50:29;;;;;;;6.07;5.68;;;;;;;7.77;100.00;135241.81;5047958;28;20040;-59
2022/12/28 09:53:21;;;;;;;6.85;6.25;;;;;;;7.81;100.00;135949.97;5052986;28;20055;-59
2022/12/28 09:55:57;;;;;;;5.82;5.43;;;;;;;7.83;100.00;137002.47;5053523;28;20059;-59
2022/12/28 09:58:23;;;;;;;6.10;5.00;;;;;;;7.87;100.00;137362.44;5053069;28;20043;-59
2022/12/28 10:00:51;;;;;;;5.65;5.22;;;;;;;7.89;100.00;138065.56;5052091;28;20170;-59
2022/12/28 10:03:32;;;;;;;;;;;;;;;7.90;100.00;139467.59;5049780;28;20052;-59
2022/12/28 10:05:58;;;;;;;5.65;5.25;;;;;;;7.84;100.00;141555.38;5044266;28;19995;-59
2022/12/28 10:08:27;;;;;;;5.97;5.57;;;;;;;7.79;100.00;142594.16;5029656;28;20079;-59
2022/12/28 10:10:58;;;;;;;5.95;5.45;;;;;;;7.84;100.00;142956.22;5032173;28;20029;-59
2022/12/28 10:13:27;;;;;;;7.15;5.07;;;;;;;7.82;100.00;142950.31;5049770;28;20024;-59
2022/12/28 10:15:53;;;;;;;5.65;5.20;;;;;;;7.79;100.00;142243.97;5048645;28;20470;-59
2022/12/28 10:18:24;;;;;;;5.78;5.30;;;;;;;7.79;100.00;140843.47;5049412;28;20024;-59
2022/12/28 10:20:49;;;;;;;6.50;6.00;;;;;;;7.71;100.00;139776.16;5047863;28;20384;-59
2022/12/28 10:23:22;;;;;;;4.97;4.57;;;;;;;7.77;100.00;138740.19;5048318;28;20033;-59
2022/12/28 10:25:51;;;;;;;5.70;5.20;;;;;;;7.78;100.00;137343.19;5048868;28;20047;-59
2022/12/28 10:28:20;;;;;;;5.30;4.90;;;;;;;7.80;100.00;136296.28;5049162;28;20096;-59
2022/12/28 10:30:48;;;;;;;5.70;5.30;;;;;;;7.82;100.00;134903.34;5048959;28;20093;-59
2022/12/28 10:33:18;;;;;;;6.07;5.65;;;;;;;7.85;100.00;133861.38;5051306;28;20052;-58
2022/12/28 10:35:53;;;;;;;6.22;5.72;;;;;;;7.87;100.00;133166.78;5048412;28;20029;-59
2022/12/28 10:38:23;;;;;;;6.05;5.47;;;;;;;7.91;100.00;132127.25;5048623;28;20476;-59
2022/12/28 10:41:02;;;;;;;6.50;6.00;;;;;;;7.86;100.00;132815.13;5048629;28;20056;-59
2022/12/28 10:43:32;;;;;;;7.53;6.82;;;;;;;7.88;100.00;132818.44;5049855;28;20032;-59
2022/12/28 10:45:59;;;;;;;6.03;5.53;;;;;;;7.88;100.00;133167.91;5047811;28;20041;-59
2022/12/28 10:48:29;;;;;;;6.78;5.78;;;;;;;7.88;100.00;133167.91;5052142;28;20116;-59
2022/12/28 10:51:00;;;;;;;7.20;6.60;;;;;;;7.86;100.00;133164.56;5056223;28;20043;-59
2022/12/28 10:53:38;;;;;;;7.00;6.45;;;;;;;7.87;100.00;133516.25;5071961;28;20039;-59
2022/12/28 10:56:04;;;;;;;;;;;;;;;7.83;100.00;133507.47;5052477;28;20037;-59
2022/12/28 10:58:29;;;;;;;7.30;6.70;;;;;;;7.87;100.00;133166.78;5052702;28;19953;-59
2022/12/28 11:01:02;;;;;;;6.60;6.10;;;;;;;7.88;100.00;133168.97;5052050;28;20041;-59
2022/12/28 11:03:31;;;;;;;9.45;6.68;;;;;;;7.88;100.00;133168.97;5053422;28;20423;-59
2022/12/28 11:06:10;;;;;;;6.45;5.85;;;;;;;7.88;100.00;133168.97;5052464;28;20045;-58
2022/12/28 11:08:36;;;;;;;6.72;6.15;;;;;;;7.90;100.00;133522.88;5054143;28;20033;-59
2022/12/28 11:11:02;;;;;;;8.32;7.57;;;;;;;7.91;100.00;133525.06;5051677;28;20289;-59
2022/12/28 11:13:27;;;;;;;8.27;7.28;;;;;;;7.88;100.00;133867.97;5052665;28;20067;-58
2022/12/28 11:15:53;;;;;;;9.35;8.18;;;;;;;7.84;100.00;134208.69;5055268;28;20052;-59
2022/12/28 11:18:19;;;;;;;6.70;6.10;;;;;;;7.91;100.00;133874.59;5053053;28;20561;-59
2022/12/28 11:20:50;;;;;;;7.95;7.18;;;;;;;7.86;100.00;133863.53;5050807;28;20036;-59
2022/12/28 11:23:30;;;;;;;12.38;7.47;;;;;;;7.87;100.00;133515.16;5053325;28;20032;-58
2022/12/28 11:25:56;;;;;;;6.90;6.30;;;;;;;7.90;100.00;133521.75;5052500;28;20127;-58
2022/12/28 11:28:21;;;;;;;12.05;8.20;;;;;;;7.92;100.00;133177.75;5052421;28;20159;-59
2022/12/28 11:30:48;;;;;;;6.88;6.15;;;;;;;7.92;100.00;133527.28;5051288;28;20052;-59
2022/12/28 11:33:33;;;;;;;9.68;7.53;;;;;;;7.93;100.00;133878.97;5052226;28;20549;-59
2022/12/28 11:36:00;;;;;;;7.82;7.15;;;;;;;7.96;100.00;133883.38;5050602;28;20064;-59
2022/12/28 11:38:41;;;;;;;7.43;6.72;;;;;;;7.98;100.00;133887.81;5053448;28;20021;-59
2022/12/28 11:41:36;;;;;;;8.45;6.95;;;;;;;7.97;100.00;134934.44;5051495;28;20041;-59
2022/12/28 11:44:05;;;;;;;8.30;7.50;;;;;;;7.98;100.00;134936.69;5031394;28;20072;-59
2022/12/28 11:46:30;;;;;;;7.53;6.88;;;;;;;7.98;100.00;135286.38;5071787;28;20068;-59
2022/12/28 11:48:58;;;;;;;7.57;6.93;;;;;;;7.98;100.00;135636.06;5058052;28;20107;-59
2022/12/28 11:51:34;;;;;;;6.93;6.43;;;;;;;8.04;100.00;136349.06;5050673;28;20123;-59
2022/12/28 11:54:02;;;;;;;6.68;5.82;;;;;;;8.05;100.00;137402.03;5052719;28;20426;-59
2022/12/28 11:56:42;;;;;;;8.60;7.78;;;;;;;8.04;100.00;138098.53;5053616;28;20569;-59